createdAt,value
2019-05-16T00:00:01.303Z,0.00
2019-05-16T00:01:01.345Z,0.00
2019-05-16T00:02:01.572Z,0.00
2019-05-16T00:03:01.331Z,0.00
2019-05-16T00:04:01.359Z,0.00
2019-05-16T00:05:01.382Z,0.00
2019-05-16T00:06:01.376Z,0.00
2019-05-16T00:07:01.362Z,0.00
2019-05-16T00:08:01.441Z,0.00
2019-05-16T00:09:01.374Z,0.00
2019-05-16T00:10:01.391Z,0.00
2019-05-16T00:11:01.407Z,0.00
2019-05-16T00:12:01.358Z,0.00
2019-05-16T00:13:01.398Z,0.00
2019-05-16T00:14:01.386Z,0.00
2019-05-16T00:15:01.380Z,0.00
2019-05-16T00:16:01.426Z,0.00
2019-05-16T00:17:01.518Z,0.00
2019-05-16T00:18:01.441Z,0.00
2019-05-16T00:19:01.393Z,0.00
2019-05-16T00:20:01.441Z,0.00
2019-05-16T00:21:01.426Z,0.00
2019-05-16T00:22:01.430Z,0.00
2019-05-16T00:23:01.418Z,0.00
2019-05-16T00:24:01.429Z,0.00
2019-05-16T00:25:01.506Z,0.00
2019-05-16T00:26:01.486Z,0.00
2019-05-16T00:27:01.450Z,0.00
2019-05-16T00:28:01.522Z,0.00
2019-05-16T00:29:01.462Z,0.00
2019-05-16T00:30:01.456Z,0.00
2019-05-16T00:31:01.465Z,0.00
2019-05-16T00:32:01.488Z,0.00
2019-05-16T00:33:01.482Z,0.00
2019-05-16T00:34:01.475Z,0.00
2019-05-16T00:35:01.491Z,0.00
2019-05-16T00:36:05.285Z,0.00
2019-05-16T00:37:01.516Z,0.00
2019-05-16T00:38:01.514Z,0.00
2019-05-16T00:39:01.523Z,0.00
2019-05-16T00:40:01.599Z,0.00
2019-05-16T00:41:01.506Z,0.00
2019-05-16T00:42:01.549Z,0.00
2019-05-16T00:43:01.507Z,0.00
2019-05-16T00:44:01.547Z,0.00
2019-05-16T00:45:01.533Z,0.00
2019-05-16T00:46:01.529Z,0.00
2019-05-16T00:47:01.564Z,0.00
2019-05-16T00:48:01.542Z,0.00
2019-05-16T00:49:01.545Z,0.00
2019-05-16T00:50:01.544Z,0.00
2019-05-16T00:51:01.571Z,0.00
2019-05-16T00:52:01.574Z,0.00
2019-05-16T00:53:01.583Z,0.00
2019-05-16T00:54:01.560Z,0.00
2019-05-16T00:55:01.583Z,0.00
2019-05-16T00:56:01.575Z,0.00
2019-05-16T00:57:01.605Z,0.00
2019-05-16T00:58:01.644Z,0.00
2019-05-16T00:59:01.602Z,0.00
2019-05-16T01:00:01.601Z,0.00
2019-05-16T01:01:01.613Z,0.00
2019-05-16T01:02:01.626Z,0.00
2019-05-16T01:03:01.642Z,0.00
2019-05-16T01:04:01.658Z,0.00
2019-05-16T01:05:01.641Z,0.00
2019-05-16T01:06:01.649Z,0.00
2019-05-16T01:07:01.904Z,0.00
2019-05-16T01:08:01.619Z,0.00
2019-05-16T01:09:01.663Z,0.00
2019-05-16T01:10:01.681Z,0.00
2019-05-16T01:11:01.654Z,0.00
2019-05-16T01:12:01.638Z,0.00
2019-05-16T01:13:01.648Z,0.00
2019-05-16T01:14:01.699Z,0.00
2019-05-16T01:15:01.657Z,0.00
2019-05-16T01:16:01.667Z,0.00
2019-05-16T01:17:01.684Z,0.00
2019-05-16T01:18:01.759Z,0.00
2019-05-16T01:19:01.676Z,0.00
2019-05-16T01:20:01.700Z,0.00
2019-05-16T01:21:01.699Z,0.00
2019-05-16T01:22:01.710Z,0.00
2019-05-16T01:23:01.690Z,0.00
2019-05-16T01:24:01.787Z,0.00
2019-05-16T01:25:01.732Z,0.00
2019-05-16T01:26:01.728Z,0.00
2019-05-16T01:27:01.731Z,0.00
2019-05-16T01:28:01.714Z,0.00
2019-05-16T01:29:01.710Z,0.00
2019-05-16T01:30:01.727Z,0.00
2019-05-16T01:31:01.769Z,0.00
2019-05-16T01:32:01.745Z,0.00
2019-05-16T01:33:01.786Z,0.00
2019-05-16T01:34:01.746Z,0.00
2019-05-16T01:35:01.768Z,0.00
2019-05-16T01:36:01.799Z,0.00
2019-05-16T01:37:01.758Z,0.00
2019-05-16T01:38:01.769Z,0.00
2019-05-16T01:39:01.806Z,0.00
2019-05-16T01:40:01.763Z,0.00
2019-05-16T01:41:01.770Z,0.00
2019-05-16T01:42:01.834Z,0.00
2019-05-16T01:43:01.816Z,0.00
2019-05-16T01:44:01.779Z,0.00
2019-05-16T01:45:01.783Z,0.00
2019-05-16T01:46:01.804Z,0.00
2019-05-16T01:47:01.809Z,0.00
2019-05-16T01:48:01.830Z,0.00
2019-05-16T01:49:01.810Z,0.00
2019-05-16T01:50:01.957Z,0.00
2019-05-16T01:51:01.809Z,0.00
2019-05-16T01:52:01.887Z,0.00
2019-05-16T01:53:01.869Z,0.00
2019-05-16T01:54:01.833Z,0.00
2019-05-16T01:55:01.848Z,0.00
2019-05-16T01:56:01.840Z,0.00
2019-05-16T01:57:01.901Z,0.00
2019-05-16T01:58:01.852Z,0.00
2019-05-16T01:59:01.875Z,0.00
2019-05-16T02:00:01.883Z,0.00
2019-05-16T02:01:11.567Z,0.00
2019-05-16T02:02:01.883Z,0.00
2019-05-16T02:03:01.904Z,0.00
2019-05-16T02:04:01.961Z,0.00
2019-05-16T02:05:01.920Z,0.00
2019-05-16T02:06:01.902Z,0.00
2019-05-16T02:07:01.899Z,0.00
2019-05-16T02:08:01.915Z,0.00
2019-05-16T02:09:01.925Z,0.00
2019-05-16T02:10:01.972Z,0.00
2019-05-16T02:11:01.912Z,0.00
2019-05-16T02:12:01.952Z,0.00
2019-05-16T02:13:01.933Z,0.00
2019-05-16T02:14:01.960Z,0.00
2019-05-16T02:15:01.931Z,0.00
2019-05-16T02:16:01.939Z,0.00
2019-05-16T02:17:01.935Z,0.00
2019-05-16T02:18:01.976Z,0.00
2019-05-16T02:19:01.945Z,0.00
2019-05-16T02:20:01.959Z,0.00
2019-05-16T02:21:01.955Z,0.00
2019-05-16T02:22:01.948Z,0.00
2019-05-16T02:23:01.993Z,0.00
2019-05-16T02:24:02.202Z,0.00
2019-05-16T02:25:01.989Z,0.00
2019-05-16T02:26:01.978Z,0.00
2019-05-16T02:27:01.967Z,0.00
2019-05-16T02:28:01.975Z,0.00
2019-05-16T02:29:02.043Z,0.00
2019-05-16T02:30:02.004Z,0.00
2019-05-16T02:31:02.015Z,0.00
2019-05-16T02:32:02.278Z,0.00
2019-05-16T02:33:02.049Z,0.00
2019-05-16T02:34:04.845Z,0.00
2019-05-16T02:35:02.058Z,0.00
2019-05-16T02:36:02.150Z,0.00
2019-05-16T02:37:18.876Z,0.00
2019-05-16T02:38:02.055Z,0.00
2019-05-16T02:39:02.313Z,0.00
2019-05-16T02:40:02.042Z,0.00
2019-05-16T02:41:03.095Z,0.00
2019-05-16T02:42:02.069Z,0.00
2019-05-16T02:43:02.186Z,0.00
2019-05-16T02:44:02.079Z,0.00
2019-05-16T02:45:02.701Z,0.00
2019-05-16T02:46:02.074Z,0.00
2019-05-16T02:47:02.102Z,0.00
2019-05-16T02:48:02.083Z,0.00
2019-05-16T02:49:02.091Z,0.00
2019-05-16T02:50:02.144Z,0.00
2019-05-16T02:51:02.196Z,0.00
2019-05-16T02:52:02.118Z,0.00
2019-05-16T02:53:02.135Z,0.00
2019-05-16T02:54:02.118Z,0.00
2019-05-16T02:55:02.148Z,0.00
2019-05-16T02:56:02.097Z,0.00
2019-05-16T02:57:02.170Z,0.00
2019-05-16T02:58:02.166Z,0.00
2019-05-16T02:59:02.131Z,0.00
2019-05-16T03:00:02.420Z,0.00
2019-05-16T03:01:02.324Z,0.00
2019-05-16T03:02:02.141Z,0.00
2019-05-16T03:03:02.173Z,0.00
2019-05-16T03:04:02.172Z,0.00
2019-05-16T03:05:02.166Z,0.00
2019-05-16T03:06:02.160Z,0.00
2019-05-16T03:07:02.170Z,0.00
2019-05-16T03:08:02.187Z,0.00
2019-05-16T03:09:05.348Z,0.00
2019-05-16T03:10:02.377Z,0.00
2019-05-16T03:11:02.198Z,0.00
2019-05-16T03:12:02.168Z,0.00
2019-05-16T03:13:02.222Z,0.00
2019-05-16T03:14:02.219Z,0.00
2019-05-16T03:15:02.772Z,0.00
2019-05-16T03:16:02.196Z,5.63
2019-05-16T03:17:02.219Z,5.63
2019-05-16T03:18:04.340Z,5.63
2019-05-16T03:19:02.249Z,5.63
2019-05-16T03:20:02.266Z,5.63
2019-05-16T03:21:02.217Z,5.63
2019-05-16T03:22:02.234Z,5.63
2019-05-16T03:23:02.551Z,5.63
2019-05-16T03:24:02.307Z,5.63
2019-05-16T03:25:02.248Z,11.25
2019-05-16T03:26:02.248Z,11.25
2019-05-16T03:27:02.260Z,11.25
2019-05-16T03:28:03.129Z,11.25
2019-05-16T03:29:02.284Z,11.25
2019-05-16T03:30:02.591Z,11.25
2019-05-16T03:31:05.196Z,11.25
2019-05-16T03:32:03.356Z,11.25
2019-05-16T03:33:04.479Z,11.25
2019-05-16T03:34:07.336Z,11.25
2019-05-16T03:35:05.239Z,11.25
2019-05-16T03:36:04.473Z,16.88
2019-05-16T03:37:04.074Z,22.50
2019-05-16T03:38:05.660Z,22.50
2019-05-16T03:39:02.322Z,28.13
2019-05-16T03:40:02.309Z,22.50
2019-05-16T03:41:02.345Z,22.50
2019-05-16T03:42:02.307Z,22.50
2019-05-16T03:43:02.401Z,16.88
2019-05-16T03:44:02.325Z,16.88
2019-05-16T03:45:02.508Z,16.88
2019-05-16T03:46:02.801Z,16.88
2019-05-16T03:47:02.344Z,16.88
2019-05-16T03:48:03.236Z,16.88
2019-05-16T03:49:02.769Z,16.88
2019-05-16T03:50:02.373Z,11.25
2019-05-16T03:51:02.372Z,11.25
2019-05-16T03:52:02.359Z,11.25
2019-05-16T03:53:02.363Z,11.25
2019-05-16T03:54:03.019Z,11.25
2019-05-16T03:55:02.385Z,11.25
2019-05-16T03:56:02.407Z,11.25
2019-05-16T03:57:02.442Z,11.25
2019-05-16T03:58:02.516Z,11.25
2019-05-16T03:59:02.437Z,11.25
2019-05-16T04:00:02.422Z,16.88
2019-05-16T04:01:02.823Z,22.50
2019-05-16T04:02:02.399Z,22.50
2019-05-16T04:03:02.430Z,28.13
2019-05-16T04:04:02.424Z,28.13
2019-05-16T04:05:02.461Z,33.75
2019-05-16T04:06:02.482Z,33.75
2019-05-16T04:07:02.430Z,33.75
2019-05-16T04:08:14.854Z,33.75
2019-05-16T04:09:02.447Z,33.75
2019-05-16T04:10:02.567Z,33.75
2019-05-16T04:11:02.460Z,28.13
2019-05-16T04:12:02.468Z,22.50
2019-05-16T04:13:02.460Z,22.50
2019-05-16T04:14:02.479Z,28.13
2019-05-16T04:15:02.494Z,22.50
2019-05-16T04:16:02.470Z,16.88
2019-05-16T04:17:02.500Z,16.88
2019-05-16T04:18:02.492Z,22.50
2019-05-16T04:19:02.551Z,28.13
2019-05-16T04:20:02.607Z,28.13
2019-05-16T04:21:02.526Z,28.13
2019-05-16T04:22:02.496Z,33.75
2019-05-16T04:23:02.497Z,33.75
2019-05-16T04:24:02.500Z,33.75
2019-05-16T04:25:02.536Z,39.38
2019-05-16T04:26:02.500Z,33.75
2019-05-16T04:27:02.523Z,33.75
2019-05-16T04:28:02.521Z,28.13
2019-05-16T04:29:02.570Z,33.75
2019-05-16T04:30:02.541Z,33.75
2019-05-16T04:31:02.550Z,33.75
2019-05-16T04:32:02.562Z,28.13
2019-05-16T04:33:02.530Z,28.13
2019-05-16T04:34:02.554Z,28.13
2019-05-16T04:35:02.894Z,28.13
2019-05-16T04:36:02.556Z,22.50
2019-05-16T04:37:02.560Z,28.13
2019-05-16T04:38:02.564Z,28.13
2019-05-16T04:39:02.574Z,22.50
2019-05-16T04:40:02.602Z,28.13
2019-05-16T04:41:02.627Z,28.13
2019-05-16T04:42:02.592Z,28.13
2019-05-16T04:43:02.662Z,22.50
2019-05-16T04:44:04.979Z,28.13
2019-05-16T04:45:02.616Z,22.50
2019-05-16T04:46:02.618Z,22.50
2019-05-16T04:47:02.637Z,22.50
2019-05-16T04:48:02.604Z,28.13
2019-05-16T04:49:02.636Z,28.13
2019-05-16T04:50:02.645Z,22.50
2019-05-16T04:51:02.622Z,22.50
2019-05-16T04:52:02.656Z,22.50
2019-05-16T04:53:02.620Z,28.13
2019-05-16T04:54:06.797Z,28.13
2019-05-16T04:55:02.690Z,22.50
2019-05-16T04:56:02.658Z,22.50
2019-05-16T04:57:02.671Z,28.13
2019-05-16T04:58:02.654Z,28.13
2019-05-16T04:59:02.675Z,28.13
2019-05-16T05:00:02.844Z,28.13
2019-05-16T05:01:02.716Z,33.75
2019-05-16T05:02:02.737Z,33.75
2019-05-16T05:03:02.682Z,39.38
2019-05-16T05:04:10.833Z,39.38
2019-05-16T05:05:02.678Z,39.38
2019-05-16T05:06:02.716Z,45.00
2019-05-16T05:07:02.717Z,45.00
2019-05-16T05:08:02.738Z,45.00
2019-05-16T05:09:03.595Z,45.00
2019-05-16T05:10:02.713Z,45.00
2019-05-16T05:11:02.785Z,39.38
2019-05-16T05:12:04.483Z,39.38
2019-05-16T05:13:02.735Z,39.38
2019-05-16T05:14:02.723Z,39.38
2019-05-16T05:15:02.869Z,45.00
2019-05-16T05:16:02.753Z,50.63
2019-05-16T05:17:05.395Z,56.25
2019-05-16T05:18:02.750Z,61.88
2019-05-16T05:19:02.756Z,61.88
2019-05-16T05:20:02.746Z,67.50
2019-05-16T05:21:02.833Z,78.75
2019-05-16T05:22:02.803Z,84.38
2019-05-16T05:23:02.764Z,84.38
2019-05-16T05:24:02.827Z,78.75
2019-05-16T05:25:02.773Z,78.75
2019-05-16T05:26:02.857Z,73.13
2019-05-16T05:27:02.802Z,73.13
2019-05-16T05:28:02.833Z,78.75
2019-05-16T05:29:02.807Z,78.75
2019-05-16T05:30:02.823Z,78.75
2019-05-16T05:31:02.812Z,73.13
2019-05-16T05:32:04.815Z,73.13
2019-05-16T05:33:02.830Z,67.50
2019-05-16T05:34:02.842Z,67.50
2019-05-16T05:35:02.829Z,61.88
2019-05-16T05:36:02.904Z,56.25
2019-05-16T05:37:02.878Z,56.25
2019-05-16T05:38:02.861Z,56.25
2019-05-16T05:39:11.525Z,56.25
2019-05-16T05:40:02.836Z,61.88
2019-05-16T05:41:02.887Z,78.75
2019-05-16T05:42:02.894Z,78.75
2019-05-16T05:43:02.867Z,78.75
2019-05-16T05:44:02.868Z,90.00
2019-05-16T05:45:02.909Z,78.75
2019-05-16T05:46:02.880Z,95.63
2019-05-16T05:47:02.893Z,90.00
2019-05-16T05:48:02.876Z,106.88
2019-05-16T05:49:02.885Z,101.25
2019-05-16T05:50:02.909Z,118.13
2019-05-16T05:51:02.914Z,123.75
2019-05-16T05:52:02.920Z,135.00
2019-05-16T05:53:02.915Z,140.63
2019-05-16T05:54:03.089Z,151.88
2019-05-16T05:55:02.941Z,146.25
2019-05-16T05:56:02.930Z,151.88
2019-05-16T05:57:02.927Z,146.25
2019-05-16T05:58:02.945Z,151.88
2019-05-16T05:59:02.981Z,151.88
2019-05-16T06:00:02.976Z,163.13
2019-05-16T06:01:02.935Z,174.38
2019-05-16T06:02:02.952Z,191.25
2019-05-16T06:03:02.951Z,174.38
2019-05-16T06:04:02.966Z,174.38
2019-05-16T06:05:03.008Z,157.50
2019-05-16T06:06:02.967Z,151.88
2019-05-16T06:07:02.974Z,157.50
2019-05-16T06:08:02.979Z,157.50
2019-05-16T06:09:03.024Z,146.25
2019-05-16T06:10:03.036Z,151.88
2019-05-16T06:11:02.997Z,157.50
2019-05-16T06:12:03.112Z,129.38
2019-05-16T06:13:03.000Z,123.75
2019-05-16T06:14:03.028Z,129.38
2019-05-16T06:15:08.079Z,129.38
2019-05-16T06:16:03.067Z,135.00
2019-05-16T06:17:03.025Z,151.88
2019-05-16T06:18:03.044Z,146.25
2019-05-16T06:19:03.106Z,140.63
2019-05-16T06:20:03.055Z,151.88
2019-05-16T06:21:03.059Z,163.13
2019-05-16T06:22:03.085Z,163.13
2019-05-16T06:23:03.061Z,168.75
2019-05-16T06:24:03.068Z,151.88
2019-05-16T06:25:03.091Z,163.13
2019-05-16T06:26:03.087Z,163.13
2019-05-16T06:27:03.100Z,163.13
2019-05-16T06:28:03.146Z,185.63
2019-05-16T06:29:03.112Z,202.50
2019-05-16T06:30:03.085Z,236.25
2019-05-16T06:31:03.094Z,208.13
2019-05-16T06:32:03.086Z,241.88
2019-05-16T06:33:03.113Z,208.13
2019-05-16T06:34:07.846Z,236.25
2019-05-16T06:35:03.119Z,202.50
2019-05-16T06:36:03.139Z,196.88
2019-05-16T06:37:03.115Z,196.88
2019-05-16T06:38:03.137Z,191.25
2019-05-16T06:39:03.183Z,174.38
2019-05-16T06:40:03.173Z,191.25
2019-05-16T06:41:03.155Z,196.88
2019-05-16T06:42:03.157Z,208.13
2019-05-16T06:43:03.208Z,213.75
2019-05-16T06:44:03.176Z,180.00
2019-05-16T06:45:03.199Z,180.00
2019-05-16T06:46:03.173Z,196.88
2019-05-16T06:47:15.907Z,185.63
2019-05-16T06:48:03.608Z,157.50
2019-05-16T06:49:03.175Z,157.50
2019-05-16T06:50:03.215Z,151.88
2019-05-16T06:51:03.348Z,151.88
2019-05-16T06:52:03.185Z,163.13
2019-05-16T06:53:03.246Z,151.88
2019-05-16T06:54:03.242Z,151.88
2019-05-16T06:55:03.209Z,157.50
2019-05-16T06:56:03.226Z,180.00
2019-05-16T06:57:03.214Z,174.38
2019-05-16T06:58:03.231Z,180.00
2019-05-16T06:59:03.263Z,196.88
2019-05-16T07:00:03.235Z,180.00
2019-05-16T07:01:03.764Z,163.13
2019-05-16T07:02:03.235Z,140.63
2019-05-16T07:03:03.247Z,140.63
2019-05-16T07:04:05.050Z,135.00
2019-05-16T07:05:03.261Z,140.63
2019-05-16T07:06:03.264Z,163.13
2019-05-16T07:07:03.393Z,146.25
2019-05-16T07:08:03.297Z,157.50
2019-05-16T07:09:03.278Z,202.50
2019-05-16T07:10:04.677Z,185.63
2019-05-16T07:11:03.296Z,219.38
2019-05-16T07:12:03.327Z,208.13
2019-05-16T07:13:03.370Z,191.25
2019-05-16T07:14:03.305Z,213.75
2019-05-16T07:15:03.317Z,168.75
2019-05-16T07:16:03.340Z,202.50
2019-05-16T07:17:03.330Z,230.63
2019-05-16T07:18:03.364Z,247.50
2019-05-16T07:19:03.414Z,253.13
2019-05-16T07:20:03.349Z,225.00
2019-05-16T07:21:03.365Z,225.00
2019-05-16T07:22:03.365Z,208.13
2019-05-16T07:23:03.371Z,202.50
2019-05-16T07:24:03.387Z,219.38
2019-05-16T07:25:03.362Z,264.38
2019-05-16T07:26:03.405Z,247.50
2019-05-16T07:27:03.372Z,236.25
2019-05-16T07:28:03.379Z,225.00
2019-05-16T07:29:03.421Z,213.75
2019-05-16T07:30:03.392Z,185.63
2019-05-16T07:31:15.003Z,151.88
2019-05-16T07:32:03.404Z,146.25
2019-05-16T07:33:03.413Z,140.63
2019-05-16T07:34:03.427Z,135.00
2019-05-16T07:35:03.424Z,135.00
2019-05-16T07:36:03.469Z,123.75
2019-05-16T07:37:03.426Z,140.63
2019-05-16T07:38:03.427Z,157.50
2019-05-16T07:39:03.431Z,163.13
2019-05-16T07:40:16.303Z,151.88
2019-05-16T07:41:03.439Z,157.50
2019-05-16T07:42:03.482Z,146.25
2019-05-16T07:43:03.469Z,151.88
2019-05-16T07:44:03.464Z,135.00
2019-05-16T07:45:03.485Z,146.25
2019-05-16T07:46:03.480Z,151.88
2019-05-16T07:47:03.497Z,151.88
2019-05-16T07:48:03.499Z,157.50
2019-05-16T07:49:03.519Z,168.75
2019-05-16T07:50:03.491Z,168.75
2019-05-16T07:51:03.497Z,180.00
2019-05-16T07:52:03.521Z,208.13
2019-05-16T07:53:03.552Z,230.63
2019-05-16T07:54:03.518Z,241.88
2019-05-16T07:55:04.124Z,230.63
2019-05-16T07:56:03.536Z,191.25
2019-05-16T07:57:16.220Z,168.75
2019-05-16T07:58:03.535Z,157.50
2019-05-16T07:59:03.576Z,151.88
2019-05-16T08:00:03.541Z,151.88
2019-05-16T08:01:08.089Z,135.00
2019-05-16T08:02:03.569Z,135.00
2019-05-16T08:03:03.566Z,129.38
2019-05-16T08:04:03.608Z,135.00
2019-05-16T08:05:03.626Z,157.50
2019-05-16T08:06:03.598Z,151.88
2019-05-16T08:07:05.716Z,174.38
2019-05-16T08:08:03.584Z,191.25
2019-05-16T08:09:07.137Z,202.50
2019-05-16T08:10:03.614Z,180.00
2019-05-16T08:11:03.592Z,174.38
2019-05-16T08:12:05.894Z,191.25
2019-05-16T08:13:03.678Z,185.63
2019-05-16T08:14:03.620Z,168.75
2019-05-16T08:15:03.667Z,168.75
2019-05-16T08:16:03.634Z,168.75
2019-05-16T08:17:03.641Z,146.25
2019-05-16T08:18:03.639Z,146.25
2019-05-16T08:19:03.652Z,135.00
2019-05-16T08:20:03.632Z,146.25
2019-05-16T08:21:03.660Z,146.25
2019-05-16T08:22:03.699Z,123.75
2019-05-16T08:23:03.690Z,129.38
2019-05-16T08:24:07.108Z,146.25
2019-05-16T08:25:03.691Z,157.50
2019-05-16T08:26:03.717Z,163.13
2019-05-16T08:27:03.678Z,168.75
2019-05-16T08:28:03.668Z,129.38
2019-05-16T08:29:03.702Z,140.63
2019-05-16T08:30:03.742Z,140.63
2019-05-16T08:31:03.705Z,101.25
2019-05-16T08:32:03.720Z,112.50
2019-05-16T08:33:03.747Z,135.00
2019-05-16T08:34:03.711Z,135.00
2019-05-16T08:35:03.711Z,151.88
2019-05-16T08:36:08.085Z,163.13
2019-05-16T08:37:03.717Z,180.00
2019-05-16T08:38:03.744Z,163.13
2019-05-16T08:39:03.727Z,151.88
2019-05-16T08:40:03.779Z,151.88
2019-05-16T08:41:12.509Z,168.75
2019-05-16T08:42:08.374Z,180.00
2019-05-16T08:43:03.820Z,163.13
2019-05-16T08:44:03.816Z,140.63
2019-05-16T08:45:03.821Z,140.63
2019-05-16T08:46:03.776Z,163.13
2019-05-16T08:47:06.321Z,191.25
2019-05-16T08:48:03.815Z,185.63
2019-05-16T08:49:03.789Z,168.75
2019-05-16T08:50:03.829Z,180.00
2019-05-16T08:51:03.928Z,191.25
2019-05-16T08:52:03.835Z,219.38
2019-05-16T08:53:03.831Z,196.88
2019-05-16T08:54:03.814Z,185.63
2019-05-16T08:55:03.875Z,174.38
2019-05-16T08:56:03.918Z,163.13
2019-05-16T08:57:24.402Z,180.00
2019-05-16T08:58:03.947Z,213.75
2019-05-16T08:59:04.334Z,225.00
2019-05-16T09:00:03.868Z,225.00
2019-05-16T09:01:03.938Z,219.38
2019-05-16T09:02:03.916Z,196.88
2019-05-16T09:03:03.964Z,196.88
2019-05-16T09:04:03.870Z,202.50
2019-05-16T09:05:05.724Z,236.25
2019-05-16T09:06:03.891Z,230.63
2019-05-16T09:07:03.981Z,180.00
2019-05-16T09:08:03.909Z,163.13
2019-05-16T09:09:12.293Z,202.50
2019-05-16T09:10:03.899Z,219.38
2019-05-16T09:11:24.929Z,202.50
2019-05-16T09:12:03.916Z,180.00
2019-05-16T09:13:06.729Z,174.38
2019-05-16T09:14:03.942Z,168.75
2019-05-16T09:15:03.943Z,163.13
2019-05-16T09:16:03.969Z,163.13
2019-05-16T09:17:03.964Z,180.00
2019-05-16T09:18:07.303Z,213.75
2019-05-16T09:19:04.028Z,241.88
2019-05-16T09:20:03.960Z,213.75
2019-05-16T09:21:04.027Z,202.50
2019-05-16T09:22:06.981Z,196.88
2019-05-16T09:23:03.985Z,157.50
2019-05-16T09:24:06.204Z,163.13
2019-05-16T09:25:04.014Z,208.13
2019-05-16T09:26:03.988Z,253.13
2019-05-16T09:27:04.007Z,258.75
2019-05-16T09:28:04.019Z,253.13
2019-05-16T09:29:04.023Z,230.63
2019-05-16T09:30:04.021Z,230.63
2019-05-16T09:31:04.035Z,208.13
2019-05-16T09:32:16.424Z,174.38
2019-05-16T09:33:06.844Z,151.88
2019-05-16T09:34:04.059Z,135.00
2019-05-16T09:35:04.066Z,168.75
2019-05-16T09:36:04.080Z,174.38
2019-05-16T09:37:04.082Z,174.38
2019-05-16T09:38:04.052Z,219.38
2019-05-16T09:39:04.056Z,230.63
2019-05-16T09:40:06.298Z,213.75
2019-05-16T09:41:04.125Z,191.25
2019-05-16T09:42:04.078Z,196.88
2019-05-16T09:43:04.067Z,185.63
2019-05-16T09:44:04.096Z,202.50
2019-05-16T09:45:04.123Z,253.13
2019-05-16T09:46:04.305Z,258.75
2019-05-16T09:47:04.099Z,264.38
2019-05-16T09:48:04.144Z,275.63
2019-05-16T09:49:16.804Z,236.25
2019-05-16T09:50:04.113Z,219.38
2019-05-16T09:51:06.484Z,241.88
2019-05-16T09:52:04.144Z,241.88
2019-05-16T09:53:04.132Z,236.25
2019-05-16T09:54:04.123Z,253.13
2019-05-16T09:55:04.151Z,286.88
2019-05-16T09:56:04.150Z,270.00
2019-05-16T09:57:06.390Z,275.63
2019-05-16T09:58:07.129Z,258.75
2019-05-16T09:59:06.746Z,281.25
2019-05-16T10:00:06.626Z,281.25
2019-05-16T10:01:04.173Z,270.00
2019-05-16T10:02:07.054Z,241.88
2019-05-16T10:03:06.895Z,225.00
2019-05-16T10:04:06.508Z,208.13
2019-05-16T10:05:04.205Z,213.75
2019-05-16T10:06:04.190Z,202.50
2019-05-16T10:07:06.496Z,174.38
2019-05-16T10:08:06.712Z,174.38
2019-05-16T10:09:06.306Z,135.00
2019-05-16T10:10:06.406Z,129.38
2019-05-16T10:11:06.194Z,140.63
2019-05-16T10:12:11.938Z,163.13
2019-05-16T10:13:06.663Z,230.63
2019-05-16T10:14:07.055Z,275.63
2019-05-16T10:15:07.272Z,309.38
2019-05-16T10:16:04.278Z,331.88
2019-05-16T10:17:04.279Z,331.88
2019-05-16T10:18:04.278Z,365.63
2019-05-16T10:19:04.281Z,376.88
2019-05-16T10:20:04.265Z,360.00
2019-05-16T10:21:04.374Z,360.00
2019-05-16T10:22:04.306Z,382.50
2019-05-16T10:23:04.491Z,416.25
2019-05-16T10:24:04.286Z,500.63
2019-05-16T10:25:04.304Z,540.00
2019-05-16T10:26:04.311Z,528.75
2019-05-16T10:27:06.461Z,416.25
2019-05-16T10:28:04.318Z,365.63
2019-05-16T10:29:10.470Z,511.88
2019-05-16T10:30:08.118Z,596.25
2019-05-16T10:31:06.763Z,573.75
2019-05-16T10:32:04.379Z,562.50
2019-05-16T10:33:06.870Z,511.88
2019-05-16T10:34:07.407Z,511.88
2019-05-16T10:35:04.347Z,528.75
2019-05-16T10:36:04.365Z,483.75
2019-05-16T10:37:04.356Z,478.13
2019-05-16T10:38:05.504Z,376.88
2019-05-16T10:39:07.301Z,388.13
2019-05-16T10:40:04.391Z,382.50
2019-05-16T10:41:04.405Z,365.63
2019-05-16T10:42:06.677Z,348.75
2019-05-16T10:43:06.881Z,393.75
2019-05-16T10:44:06.269Z,438.75
2019-05-16T10:45:04.445Z,450.00
2019-05-16T10:46:06.507Z,444.38
2019-05-16T10:47:04.441Z,455.63
2019-05-16T10:48:04.460Z,410.63
2019-05-16T10:49:04.504Z,450.00
2019-05-16T10:50:04.442Z,455.63
2019-05-16T10:51:04.450Z,461.25
2019-05-16T10:52:07.024Z,461.25
2019-05-16T10:53:25.696Z,472.50
2019-05-16T10:54:13.020Z,461.25
2019-05-16T10:55:04.747Z,472.50
2019-05-16T10:56:04.558Z,517.50
2019-05-16T10:57:04.535Z,489.38
2019-05-16T10:58:07.195Z,511.88
2019-05-16T10:59:46.672Z,489.38
2019-05-16T11:00:12.418Z,466.88
2019-05-16T11:01:21.769Z,540.00
2019-05-16T11:02:05.117Z,523.13
2019-05-16T11:03:06.537Z,489.38
2019-05-16T11:04:07.302Z,506.25
2019-05-16T11:05:22.715Z,461.25
2019-05-16T11:06:08.310Z,438.75
2019-05-16T11:07:04.543Z,478.13
2019-05-16T11:08:04.668Z,540.00
2019-05-16T11:09:06.504Z,517.50
2019-05-16T11:10:06.899Z,444.38
2019-05-16T11:11:06.752Z,382.50
2019-05-16T11:12:04.605Z,348.75
2019-05-16T11:13:04.704Z,348.75
2019-05-16T11:14:09.001Z,309.38
2019-05-16T11:15:04.649Z,331.88
2019-05-16T11:16:09.118Z,331.88
2019-05-16T11:17:11.767Z,315.00
2019-05-16T11:18:06.711Z,343.13
2019-05-16T11:19:17.278Z,410.63
2019-05-16T11:20:04.629Z,376.88
2019-05-16T11:21:04.669Z,371.25
2019-05-16T11:22:04.642Z,405.00
2019-05-16T11:23:07.692Z,382.50
2019-05-16T11:24:10.483Z,438.75
2019-05-16T11:25:20.217Z,410.63
2019-05-16T11:26:04.710Z,444.38
2019-05-16T11:27:04.670Z,438.75
2019-05-16T11:28:07.043Z,438.75
2019-05-16T11:29:07.264Z,450.00
2019-05-16T11:30:04.710Z,455.63
2019-05-16T11:31:07.370Z,450.00
2019-05-16T11:32:06.922Z,416.25
2019-05-16T11:33:07.377Z,416.25
2019-05-16T11:34:04.732Z,382.50
2019-05-16T11:35:07.143Z,382.50
2019-05-16T11:36:07.429Z,360.00
2019-05-16T11:37:06.842Z,388.13
2019-05-16T11:38:07.192Z,393.75
2019-05-16T11:39:04.742Z,399.38
2019-05-16T11:40:06.712Z,388.13
2019-05-16T11:41:07.233Z,371.25
2019-05-16T11:42:04.776Z,337.50
2019-05-16T11:43:12.362Z,365.63
2019-05-16T11:44:06.673Z,388.13
2019-05-16T11:45:08.672Z,399.38
2019-05-16T11:46:04.784Z,376.88
2019-05-16T11:47:04.802Z,376.88
2019-05-16T11:48:04.818Z,388.13
2019-05-16T11:49:04.815Z,517.50
2019-05-16T11:50:07.207Z,658.13
2019-05-16T11:51:07.073Z,601.88
2019-05-16T11:52:07.390Z,489.38
2019-05-16T11:53:07.234Z,601.88
2019-05-16T11:54:06.941Z,562.50
2019-05-16T11:55:07.204Z,658.13
2019-05-16T11:56:08.037Z,810.00
2019-05-16T11:57:06.931Z,720.00
2019-05-16T11:58:06.801Z,765.00
2019-05-16T11:59:07.627Z,765.00
2019-05-16T12:00:04.889Z,652.50
2019-05-16T12:01:07.416Z,506.25
2019-05-16T12:02:04.976Z,517.50
2019-05-16T12:03:04.925Z,551.25
2019-05-16T12:04:07.759Z,438.75
2019-05-16T12:05:05.079Z,405.00
2019-05-16T12:06:05.543Z,478.13
2019-05-16T12:07:07.449Z,450.00
2019-05-16T12:08:07.616Z,399.38
2019-05-16T12:09:06.729Z,421.88
2019-05-16T12:10:07.376Z,455.63
2019-05-16T12:11:06.985Z,444.38
2019-05-16T12:12:04.985Z,376.88
2019-05-16T12:13:07.377Z,376.88
2019-05-16T12:14:07.173Z,343.13
2019-05-16T12:15:07.642Z,331.88
2019-05-16T12:16:07.287Z,371.25
2019-05-16T12:17:07.245Z,382.50
2019-05-16T12:18:07.707Z,405.00
2019-05-16T12:19:06.898Z,393.75
2019-05-16T12:20:07.527Z,410.63
2019-05-16T12:21:07.314Z,461.25
2019-05-16T12:22:07.087Z,472.50
2019-05-16T12:23:07.737Z,455.63
2019-05-16T12:24:07.250Z,472.50
2019-05-16T12:25:08.036Z,438.75
2019-05-16T12:26:07.453Z,405.00
2019-05-16T12:27:08.004Z,382.50
2019-05-16T12:28:07.873Z,388.13
2019-05-16T12:29:06.989Z,348.75
2019-05-16T12:30:12.893Z,360.00
2019-05-16T12:31:07.183Z,354.38
2019-05-16T12:32:07.732Z,343.13
2019-05-16T12:33:07.108Z,320.63
2019-05-16T12:34:09.029Z,320.63
2019-05-16T12:35:06.528Z,360.00
2019-05-16T12:36:07.399Z,388.13
2019-05-16T12:37:07.220Z,416.25
2019-05-16T12:38:07.805Z,444.38
2019-05-16T12:39:07.776Z,450.00
2019-05-16T12:40:05.170Z,478.13
2019-05-16T12:41:07.174Z,438.75
2019-05-16T12:42:08.398Z,444.38
2019-05-16T12:43:07.772Z,427.50
2019-05-16T12:44:07.431Z,371.25
2019-05-16T12:45:07.049Z,303.75